Airfield :
LOGIN :

Register | Disclaimer

   EN    FR    IT 

 










Legend :    VFR   Marginal VFR   IFR   Intensive IFR   Very Intensive IFR
Visi :
Ceiling :
>= 8 km
>= 3000ft
5 to 8 km
1000 to 3000 ft
1500m to 5 km
500 to 1000 ft
800 to 1500m
200 to 500 ft
< 800m
< 200 ft
Symbols :   Thunderstorms  Fog  Heavy snow  Heavy precipitations  Wind > 20 kt
SIGMETs :     Misc.  Thunderstorms  Icing  Turbulence  Mountain Waves  Volcanic Ashes






- Airport Elevation : 10 ft
- IATA code : AAL


EKYT - Aalborg

CURRENT METAR :
  • 011450Z 25018G28KT 5000 RA OVC022 05/03 Q0993

EXPIRED METARs :
  • 011442Z 25019KT 1500 RA OVC022 05/03 Q0993
  • 011420Z 24016KT 8000 OVC025 05/04 Q0993
  • 011350Z 25018KT 8000 OVC021 05/04 Q0994
  • 011328Z 25018KT 8000 OVC021 05/04 Q0994
  • 011320Z 25015KT 9000 -RA OVC017 05/04 Q0994
  • 011251Z 24016KT 7000 -RA OVC017 05/04 Q0994
  • 011239Z 24014KT 3500 -RA BR OVC017 05/04 Q0994
  • 011220Z 25015KT 9999 -RA OVC017 05/04 Q0995
  • 011214Z 24014KT 9000 -RA OVC018 05/04 Q0995

TAF TAF EKYT
Valid from the 01 at 15:00 until the 02 at 15:00 UTC


011421Z 0115/0215 27018KT 9999 BKN020
TEMPO 0115/0118 28018G35KT 3000 SHRA BKN008 SCT020CB
TEMPO 0118/0120 35018G32KT 3000 SHRA BKN008 SCT020CB
BECMG 0120/0122 33015KT
BECMG 0202/0205 30007KT



MET'MAP, your aeronautical weather chart ! - Copyright ORBIFLY December 2007 - Disclaimer

ORBIFLY MET'MAP TEAM :

Programming & Development : Alexandra Zaïnal
Original concept : Baudouin d'Aumeries
Technical & hardware support : Manuel Goepfert
Assistance : Marc-Olivier Méhu




SOURCES & CREDITS :

   NOAA